sensor_id;sensor_type;location;lat;lon;timestamp;P1;durP1;ratioP1;P2;durP2;ratioP2
67156;SDS011;54086;50.126;8.710;2022-11-15T00:01:29;17.37;;;8.33;;
67156;SDS011;54086;50.126;8.710;2022-11-15T00:03:55;16.43;;;7.83;;
67156;SDS011;54086;50.126;8.710;2022-11-15T00:06:20;16.47;;;7.87;;
67156;SDS011;54086;50.126;8.710;2022-11-15T00:08:46;16.23;;;8.13;;
67156;SDS011;54086;50.126;8.710;2022-11-15T00:11:12;16.77;;;8.13;;
67156;SDS011;54086;50.126;8.710;2022-11-15T00:13:37;16.30;;;8.00;;
67156;SDS011;54086;50.126;8.710;2022-11-15T00:16:03;15.20;;;7.83;;
67156;SDS011;54086;50.126;8.710;2022-11-15T00:18:29;13.82;;;7.72;;
67156;SDS011;54086;50.126;8.710;2022-11-15T00:20:55;17.65;;;7.78;;
67156;SDS011;54086;50.126;8.710;2022-11-15T00:23:27;13.82;;;8.35;;
67156;SDS011;54086;50.126;8.710;2022-11-15T00:25:58;15.70;;;7.73;;
67156;SDS011;54086;50.126;8.710;2022-11-15T00:28:24;13.82;;;7.65;;
67156;SDS011;54086;50.126;8.710;2022-11-15T00:30:50;15.23;;;7.37;;
67156;SDS011;54086;50.126;8.710;2022-11-15T00:33:16;14.10;;;6.82;;
67156;SDS011;54086;50.126;8.710;2022-11-15T00:35:42;15.70;;;7.80;;
67156;SDS011;54086;50.126;8.710;2022-11-15T00:38:07;17.30;;;8.10;;
67156;SDS011;54086;50.126;8.710;2022-11-15T00:40:32;13.70;;;7.07;;
67156;SDS011;54086;50.126;8.710;2022-11-15T00:42:58;19.50;;;8.23;;
67156;SDS011;54086;50.126;8.710;2022-11-15T00:45:24;13.60;;;7.43;;
67156;SDS011;54086;50.126;8.710;2022-11-15T00:47:50;15.38;;;7.80;;
67156;SDS011;54086;50.126;8.710;2022-11-15T00:50:15;15.20;;;8.38;;
67156;SDS011;54086;50.126;8.710;2022-11-15T00:52:41;15.97;;;8.53;;
67156;SDS011;54086;50.126;8.710;2022-11-15T00:55:06;16.30;;;7.90;;
67156;SDS011;54086;50.126;8.710;2022-11-15T00:57:33;15.55;;;8.07;;
67156;SDS011;54086;50.126;8.710;2022-11-15T00:59:58;14.57;;;8.03;;
67156;SDS011;54086;50.126;8.710;2022-11-15T01:02:23;14.30;;;7.93;;
67156;SDS011;54086;50.126;8.710;2022-11-15T01:04:49;16.97;;;8.77;;
67156;SDS011;54086;50.126;8.710;2022-11-15T01:07:14;14.60;;;7.90;;
67156;SDS011;54086;50.126;8.710;2022-11-15T01:09:39;17.47;;;7.87;;
67156;SDS011;54086;50.126;8.710;2022-11-15T01:12:05;16.20;;;8.77;;
67156;SDS011;54086;50.126;8.710;2022-11-15T01:14:30;15.03;;;7.90;;
67156;SDS011;54086;50.126;8.710;2022-11-15T01:16:55;15.97;;;8.70;;
67156;SDS011;54086;50.126;8.710;2022-11-15T01:19:21;13.97;;;7.50;;
67156;SDS011;54086;50.126;8.710;2022-11-15T01:21:49;13.47;;;7.57;;
67156;SDS011;54086;50.126;8.710;2022-11-15T01:24:15;20.65;;;8.40;;
67156;SDS011;54086;50.126;8.710;2022-11-15T01:26:40;17.07;;;7.70;;
67156;SDS011;54086;50.126;8.710;2022-11-15T01:29:06;17.48;;;8.60;;
67156;SDS011;54086;50.126;8.710;2022-11-15T01:31:31;15.20;;;7.73;;
67156;SDS011;54086;50.126;8.710;2022-11-15T01:33:57;18.33;;;7.90;;
67156;SDS011;54086;50.126;8.710;2022-11-15T01:36:22;15.20;;;7.57;;
67156;SDS011;54086;50.126;8.710;2022-11-15T01:38:54;14.05;;;8.10;;
67156;SDS011;54086;50.126;8.710;2022-11-15T01:41:22;14.40;;;7.43;;
67156;SDS011;54086;50.126;8.710;2022-11-15T01:43:51;12.50;;;7.47;;
67156;SDS011;54086;50.126;8.710;2022-11-15T01:48:46;13.80;;;6.85;;
67156;SDS011;54086;50.126;8.710;2022-11-15T01:51:13;12.70;;;6.82;;
67156;SDS011;54086;50.126;8.710;2022-11-15T01:53:41;10.70;;;5.78;;
67156;SDS011;54086;50.126;8.710;2022-11-15T01:56:11;13.70;;;6.43;;
67156;SDS011;54086;50.126;8.710;2022-11-15T01:58:42;14.02;;;6.57;;
67156;SDS011;54086;50.126;8.710;2022-11-15T02:01:10;11.52;;;6.32;;
67156;SDS011;54086;50.126;8.710;2022-11-15T02:03:48;10.32;;;5.35;;
67156;SDS011;54086;50.126;8.710;2022-11-15T02:06:19;11.65;;;6.25;;
67156;SDS011;54086;50.126;8.710;2022-11-15T02:08:46;13.20;;;6.20;;
67156;SDS011;54086;50.126;8.710;2022-11-15T02:11:12;10.10;;;5.50;;
67156;SDS011;54086;50.126;8.710;2022-11-15T02:13:37;11.03;;;5.90;;
67156;SDS011;54086;50.126;8.710;2022-11-15T02:18:35;11.10;;;6.05;;
67156;SDS011;54086;50.126;8.710;2022-11-15T02:29:05;12.60;;;5.60;;
67156;SDS011;54086;50.126;8.710;2022-11-15T02:37:03;15.95;;;5.60;;
67156;SDS011;54086;50.126;8.710;2022-11-15T02:42:21;10.82;;;5.30;;
67156;SDS011;54086;50.126;8.710;2022-11-15T02:45:11;12.27;;;5.18;;
67156;SDS011;54086;50.126;8.710;2022-11-15T02:47:42;9.95;;;4.57;;
67156;SDS011;54086;50.126;8.710;2022-11-15T02:50:12;10.98;;;5.43;;
67156;SDS011;54086;50.126;8.710;2022-11-15T02:52:40;9.87;;;4.80;;
67156;SDS011;54086;50.126;8.710;2022-11-15T02:58:05;10.02;;;5.30;;
67156;SDS011;54086;50.126;8.710;2022-11-15T03:00:36;9.35;;;4.43;;
67156;SDS011;54086;50.126;8.710;2022-11-15T03:06:52;13.20;;;4.80;;
67156;SDS011;54086;50.126;8.710;2022-11-15T03:09:25;11.52;;;4.93;;
67156;SDS011;54086;50.126;8.710;2022-11-15T03:11:56;9.77;;;5.13;;
67156;SDS011;54086;50.126;8.710;2022-11-15T03:14:29;14.00;;;5.93;;
67156;SDS011;54086;50.126;8.710;2022-11-15T03:19:46;11.30;;;5.87;;
67156;SDS011;54086;50.126;8.710;2022-11-15T03:22:16;12.52;;;5.45;;
67156;SDS011;54086;50.126;8.710;2022-11-15T03:24:44;9.38;;;4.60;;
67156;SDS011;54086;50.126;8.710;2022-11-15T03:27:12;11.63;;;5.28;;
67156;SDS011;54086;50.126;8.710;2022-11-15T03:29:46;12.38;;;5.57;;
67156;SDS011;54086;50.126;8.710;2022-11-15T03:32:17;12.97;;;5.57;;
67156;SDS011;54086;50.126;8.710;2022-11-15T03:34:50;10.02;;;4.63;;
67156;SDS011;54086;50.126;8.710;2022-11-15T03:37:20;10.70;;;5.28;;
67156;SDS011;54086;50.126;8.710;2022-11-15T03:39:47;10.85;;;4.95;;
67156;SDS011;54086;50.126;8.710;2022-11-15T03:42:23;10.07;;;5.30;;
67156;SDS011;54086;50.126;8.710;2022-11-15T03:44:59;10.38;;;5.00;;
67156;SDS011;54086;50.126;8.710;2022-11-15T03:47:38;9.18;;;4.75;;
67156;SDS011;54086;50.126;8.710;2022-11-15T03:50:14;10.27;;;4.80;;
67156;SDS011;54086;50.126;8.710;2022-11-15T03:52:45;10.60;;;5.50;;
67156;SDS011;54086;50.126;8.710;2022-11-15T03:55:14;11.15;;;5.68;;
67156;SDS011;54086;50.126;8.710;2022-11-15T03:57:42;10.48;;;5.38;;
67156;SDS011;54086;50.126;8.710;2022-11-15T04:00:08;11.90;;;5.43;;
67156;SDS011;54086;50.126;8.710;2022-11-15T04:02:34;10.60;;;5.32;;
67156;SDS011;54086;50.126;8.710;2022-11-15T04:04:59;13.03;;;6.13;;
67156;SDS011;54086;50.126;8.710;2022-11-15T04:07:25;9.88;;;4.93;;
67156;SDS011;54086;50.126;8.710;2022-11-15T04:09:50;12.03;;;4.97;;
67156;SDS011;54086;50.126;8.710;2022-11-15T04:12:31;11.20;;;4.90;;
67156;SDS011;54086;50.126;8.710;2022-11-15T04:20:04;10.63;;;4.87;;
67156;SDS011;54086;50.126;8.710;2022-11-15T04:22:52;10.95;;;4.60;;
67156;SDS011;54086;50.126;8.710;2022-11-15T04:25:36;12.60;;;4.82;;
67156;SDS011;54086;50.126;8.710;2022-11-15T04:28:02;13.17;;;5.47;;
67156;SDS011;54086;50.126;8.710;2022-11-15T04:30:27;9.88;;;4.85;;
67156;SDS011;54086;50.126;8.710;2022-11-15T04:32:52;9.73;;;5.07;;
67156;SDS011;54086;50.126;8.710;2022-11-15T04:35:18;13.93;;;5.60;;
67156;SDS011;54086;50.126;8.710;2022-11-15T04:37:43;13.07;;;6.07;;
67156;SDS011;54086;50.126;8.710;2022-11-15T04:40:09;15.00;;;7.23;;
67156;SDS011;54086;50.126;8.710;2022-11-15T04:42:34;12.60;;;5.90;;
67156;SDS011;54086;50.126;8.710;2022-11-15T04:44:59;12.63;;;5.33;;
67156;SDS011;54086;50.126;8.710;2022-11-15T04:47:25;12.17;;;6.27;;
67156;SDS011;54086;50.126;8.710;2022-11-15T04:49:50;14.00;;;5.70;;
67156;SDS011;54086;50.126;8.710;2022-11-15T04:52:16;14.23;;;6.25;;
67156;SDS011;54086;50.126;8.710;2022-11-15T04:54:41;12.90;;;6.47;;
67156;SDS011;54086;50.126;8.710;2022-11-15T04:57:07;10.48;;;5.38;;
67156;SDS011;54086;50.126;8.710;2022-11-15T04:59:33;12.17;;;5.80;;
67156;SDS011;54086;50.126;8.710;2022-11-15T05:01:58;12.43;;;6.73;;
67156;SDS011;54086;50.126;8.710;2022-11-15T05:04:24;14.63;;;6.30;;
67156;SDS011;54086;50.126;8.710;2022-11-15T05:06:50;10.45;;;5.45;;
67156;SDS011;54086;50.126;8.710;2022-11-15T05:09:17;12.23;;;6.00;;
67156;SDS011;54086;50.126;8.710;2022-11-15T05:11:43;12.32;;;5.95;;
67156;SDS011;54086;50.126;8.710;2022-11-15T05:14:09;11.17;;;5.17;;
67156;SDS011;54086;50.126;8.710;2022-11-15T05:16:34;12.90;;;6.00;;
67156;SDS011;54086;50.126;8.710;2022-11-15T05:19:00;13.27;;;5.85;;
67156;SDS011;54086;50.126;8.710;2022-11-15T05:21:26;12.05;;;6.07;;
67156;SDS011;54086;50.126;8.710;2022-11-15T05:23:51;11.30;;;5.20;;
67156;SDS011;54086;50.126;8.710;2022-11-15T05:26:17;12.10;;;6.03;;
67156;SDS011;54086;50.126;8.710;2022-11-15T05:28:43;11.63;;;5.95;;
67156;SDS011;54086;50.126;8.710;2022-11-15T05:31:10;12.43;;;6.00;;
67156;SDS011;54086;50.126;8.710;2022-11-15T05:33:40;12.35;;;5.50;;
67156;SDS011;54086;50.126;8.710;2022-11-15T05:38:52;11.18;;;5.32;;
67156;SDS011;54086;50.126;8.710;2022-11-15T05:41:19;12.97;;;5.87;;
67156;SDS011;54086;50.126;8.710;2022-11-15T05:43:47;13.50;;;5.82;;
67156;SDS011;54086;50.126;8.710;2022-11-15T05:46:15;12.80;;;5.93;;
67156;SDS011;54086;50.126;8.710;2022-11-15T05:48:43;13.40;;;5.80;;
67156;SDS011;54086;50.126;8.710;2022-11-15T05:51:11;12.90;;;5.60;;
67156;SDS011;54086;50.126;8.710;2022-11-15T05:53:38;12.97;;;6.27;;
67156;SDS011;54086;50.126;8.710;2022-11-15T05:56:04;15.95;;;7.03;;
67156;SDS011;54086;50.126;8.710;2022-11-15T05:58:32;16.45;;;6.32;;
67156;SDS011;54086;50.126;8.710;2022-11-15T06:00:58;13.07;;;6.77;;
67156;SDS011;54086;50.126;8.710;2022-11-15T06:03:24;15.25;;;6.53;;
67156;SDS011;54086;50.126;8.710;2022-11-15T06:05:49;13.60;;;6.20;;
67156;SDS011;54086;50.126;8.710;2022-11-15T06:08:15;15.88;;;5.80;;
67156;SDS011;54086;50.126;8.710;2022-11-15T06:10:40;11.47;;;5.47;;
67156;SDS011;54086;50.126;8.710;2022-11-15T06:13:06;16.70;;;6.30;;
67156;SDS011;54086;50.126;8.710;2022-11-15T06:15:32;14.27;;;6.32;;
67156;SDS011;54086;50.126;8.710;2022-11-15T06:17:59;14.57;;;6.13;;
67156;SDS011;54086;50.126;8.710;2022-11-15T06:20:25;14.93;;;6.95;;
67156;SDS011;54086;50.126;8.710;2022-11-15T06:23:01;11.48;;;5.93;;
67156;SDS011;54086;50.126;8.710;2022-11-15T06:25:29;11.90;;;5.72;;
67156;SDS011;54086;50.126;8.710;2022-11-15T06:27:55;12.88;;;6.00;;
67156;SDS011;54086;50.126;8.710;2022-11-15T06:30:22;15.37;;;6.90;;
67156;SDS011;54086;50.126;8.710;2022-11-15T06:32:48;13.98;;;6.85;;
67156;SDS011;54086;50.126;8.710;2022-11-15T06:35:13;12.53;;;5.53;;
67156;SDS011;54086;50.126;8.710;2022-11-15T06:37:39;14.65;;;5.85;;
67156;SDS011;54086;50.126;8.710;2022-11-15T06:40:05;14.88;;;6.53;;
67156;SDS011;54086;50.126;8.710;2022-11-15T06:42:32;15.50;;;6.00;;
67156;SDS011;54086;50.126;8.710;2022-11-15T06:44:57;17.58;;;6.22;;
67156;SDS011;54086;50.126;8.710;2022-11-15T06:47:22;14.30;;;6.60;;
67156;SDS011;54086;50.126;8.710;2022-11-15T06:49:48;11.77;;;5.77;;
67156;SDS011;54086;50.126;8.710;2022-11-15T06:52:13;16.20;;;6.13;;
67156;SDS011;54086;50.126;8.710;2022-11-15T06:54:39;16.20;;;6.30;;
67156;SDS011;54086;50.126;8.710;2022-11-15T06:57:13;18.42;;;6.72;;
67156;SDS011;54086;50.126;8.710;2022-11-15T06:59:39;15.33;;;6.27;;
67156;SDS011;54086;50.126;8.710;2022-11-15T07:02:05;15.50;;;5.97;;
67156;SDS011;54086;50.126;8.710;2022-11-15T07:04:30;15.85;;;5.90;;
67156;SDS011;54086;50.126;8.710;2022-11-15T07:06:56;14.00;;;6.50;;
67156;SDS011;54086;50.126;8.710;2022-11-15T07:09:21;15.70;;;6.30;;
67156;SDS011;54086;50.126;8.710;2022-11-15T07:11:46;15.53;;;6.87;;
67156;SDS011;54086;50.126;8.710;2022-11-15T07:14:12;11.70;;;6.45;;
67156;SDS011;54086;50.126;8.710;2022-11-15T07:16:37;17.80;;;6.27;;
67156;SDS011;54086;50.126;8.710;2022-11-15T07:19:03;14.13;;;7.03;;
67156;SDS011;54086;50.126;8.710;2022-11-15T07:21:35;13.18;;;6.15;;
67156;SDS011;54086;50.126;8.710;2022-11-15T07:24:00;16.50;;;6.13;;
67156;SDS011;54086;50.126;8.710;2022-11-15T07:26:25;15.43;;;6.27;;
67156;SDS011;54086;50.126;8.710;2022-11-15T07:28:50;14.93;;;7.00;;
67156;SDS011;54086;50.126;8.710;2022-11-15T07:31:16;11.65;;;6.45;;
67156;SDS011;54086;50.126;8.710;2022-11-15T07:33:41;12.67;;;6.20;;
67156;SDS011;54086;50.126;8.710;2022-11-15T07:36:07;12.50;;;6.63;;
67156;SDS011;54086;50.126;8.710;2022-11-15T07:38:33;16.58;;;7.80;;
67156;SDS011;54086;50.126;8.710;2022-11-15T07:41:01;13.63;;;6.35;;
67156;SDS011;54086;50.126;8.710;2022-11-15T07:43:28;18.20;;;6.47;;
67156;SDS011;54086;50.126;8.710;2022-11-15T07:46:07;15.27;;;6.43;;
67156;SDS011;54086;50.126;8.710;2022-11-15T07:48:37;13.93;;;6.00;;
67156;SDS011;54086;50.126;8.710;2022-11-15T07:51:06;12.70;;;6.05;;
67156;SDS011;54086;50.126;8.710;2022-11-15T07:53:32;13.80;;;6.13;;
67156;SDS011;54086;50.126;8.710;2022-11-15T07:55:57;12.32;;;5.95;;
67156;SDS011;54086;50.126;8.710;2022-11-15T07:58:23;13.63;;;6.50;;
67156;SDS011;54086;50.126;8.710;2022-11-15T08:00:48;16.13;;;6.90;;
67156;SDS011;54086;50.126;8.710;2022-11-15T08:03:15;17.35;;;6.97;;
67156;SDS011;54086;50.126;8.710;2022-11-15T08:05:41;19.13;;;7.13;;
67156;SDS011;54086;50.126;8.710;2022-11-15T08:08:09;17.30;;;6.80;;
67156;SDS011;54086;50.126;8.710;2022-11-15T08:10:36;14.60;;;6.45;;
67156;SDS011;54086;50.126;8.710;2022-11-15T08:13:06;15.38;;;7.05;;
67156;SDS011;54086;50.126;8.710;2022-11-15T08:15:34;17.73;;;6.13;;
67156;SDS011;54086;50.126;8.710;2022-11-15T08:18:01;12.33;;;6.83;;
67156;SDS011;54086;50.126;8.710;2022-11-15T08:20:29;12.40;;;6.45;;
67156;SDS011;54086;50.126;8.710;2022-11-15T08:22:55;13.82;;;5.53;;
67156;SDS011;54086;50.126;8.710;2022-11-15T08:25:22;11.88;;;5.25;;
67156;SDS011;54086;50.126;8.710;2022-11-15T08:27:50;12.93;;;6.80;;
67156;SDS011;54086;50.126;8.710;2022-11-15T08:30:16;15.60;;;6.70;;
67156;SDS011;54086;50.126;8.710;2022-11-15T08:32:42;12.18;;;5.30;;
67156;SDS011;54086;50.126;8.710;2022-11-15T08:35:07;12.00;;;5.00;;
67156;SDS011;54086;50.126;8.710;2022-11-15T08:37:33;13.18;;;5.00;;
67156;SDS011;54086;50.126;8.710;2022-11-15T08:39:59;11.07;;;4.60;;
67156;SDS011;54086;50.126;8.710;2022-11-15T08:42:24;11.43;;;4.30;;
67156;SDS011;54086;50.126;8.710;2022-11-15T08:44:49;13.30;;;5.13;;
67156;SDS011;54086;50.126;8.710;2022-11-15T08:47:15;11.60;;;5.10;;
67156;SDS011;54086;50.126;8.710;2022-11-15T08:49:40;11.90;;;4.57;;
67156;SDS011;54086;50.126;8.710;2022-11-15T08:52:05;10.20;;;4.60;;
67156;SDS011;54086;50.126;8.710;2022-11-15T08:54:31;9.87;;;4.67;;
67156;SDS011;54086;50.126;8.710;2022-11-15T08:56:56;14.67;;;5.30;;
67156;SDS011;54086;50.126;8.710;2022-11-15T08:59:22;14.93;;;4.40;;
67156;SDS011;54086;50.126;8.710;2022-11-15T09:01:47;12.20;;;4.50;;
67156;SDS011;54086;50.126;8.710;2022-11-15T09:04:13;9.80;;;4.53;;
67156;SDS011;54086;50.126;8.710;2022-11-15T09:06:38;9.90;;;4.22;;
67156;SDS011;54086;50.126;8.710;2022-11-15T09:09:03;14.47;;;4.37;;
67156;SDS011;54086;50.126;8.710;2022-11-15T09:11:29;12.00;;;5.30;;
67156;SDS011;54086;50.126;8.710;2022-11-15T09:13:54;11.77;;;5.20;;
67156;SDS011;54086;50.126;8.710;2022-11-15T09:16:20;12.30;;;5.23;;
67156;SDS011;54086;50.126;8.710;2022-11-15T09:18:45;15.77;;;5.53;;
67156;SDS011;54086;50.126;8.710;2022-11-15T09:21:11;13.20;;;5.13;;
67156;SDS011;54086;50.126;8.710;2022-11-15T09:23:36;10.13;;;4.30;;
67156;SDS011;54086;50.126;8.710;2022-11-15T09:26:03;10.45;;;4.30;;
67156;SDS011;54086;50.126;8.710;2022-11-15T09:28:30;12.67;;;5.03;;
67156;SDS011;54086;50.126;8.710;2022-11-15T09:31:03;13.38;;;4.45;;
67156;SDS011;54086;50.126;8.710;2022-11-15T09:33:30;14.57;;;4.63;;
67156;SDS011;54086;50.126;8.710;2022-11-15T09:36:03;8.77;;;4.35;;
67156;SDS011;54086;50.126;8.710;2022-11-15T09:38:31;9.43;;;4.22;;
67156;SDS011;54086;50.126;8.710;2022-11-15T09:47:03;11.65;;;4.70;;
67156;SDS011;54086;50.126;8.710;2022-11-15T09:49:46;10.82;;;4.68;;
67156;SDS011;54086;50.126;8.710;2022-11-15T09:52:17;10.38;;;4.90;;
67156;SDS011;54086;50.126;8.710;2022-11-15T09:54:49;10.97;;;4.87;;
67156;SDS011;54086;50.126;8.710;2022-11-15T09:57:32;11.23;;;4.88;;
67156;SDS011;54086;50.126;8.710;2022-11-15T10:05:18;9.20;;;5.00;;
67156;SDS011;54086;50.126;8.710;2022-11-15T10:11:00;11.15;;;5.60;;
67156;SDS011;54086;50.126;8.710;2022-11-15T10:13:32;11.20;;;5.60;;
67156;SDS011;54086;50.126;8.710;2022-11-15T10:18:51;11.93;;;5.70;;
67156;SDS011;54086;50.126;8.710;2022-11-15T10:24:11;11.20;;;5.00;;
67156;SDS011;54086;50.126;8.710;2022-11-15T10:26:37;12.88;;;5.50;;
67156;SDS011;54086;50.126;8.710;2022-11-15T10:29:03;13.40;;;4.90;;
67156;SDS011;54086;50.126;8.710;2022-11-15T10:31:29;9.67;;;4.73;;
67156;SDS011;54086;50.126;8.710;2022-11-15T10:33:59;9.97;;;4.73;;
67156;SDS011;54086;50.126;8.710;2022-11-15T10:36:36;10.65;;;4.70;;
67156;SDS011;54086;50.126;8.710;2022-11-15T10:39:02;11.20;;;5.10;;
67156;SDS011;54086;50.126;8.710;2022-11-15T10:46:44;10.50;;;4.72;;
67156;SDS011;54086;50.126;8.710;2022-11-15T10:51:49;9.93;;;4.30;;
67156;SDS011;54086;50.126;8.710;2022-11-15T10:57:26;11.73;;;4.50;;
67156;SDS011;54086;50.126;8.710;2022-11-15T10:59:55;10.10;;;4.22;;
67156;SDS011;54086;50.126;8.710;2022-11-15T11:04:56;10.87;;;4.40;;
67156;SDS011;54086;50.126;8.710;2022-11-15T11:07:23;10.68;;;4.53;;
67156;SDS011;54086;50.126;8.710;2022-11-15T11:13:12;10.38;;;4.40;;
67156;SDS011;54086;50.126;8.710;2022-11-15T11:22:17;9.02;;;4.00;;
67156;SDS011;54086;50.126;8.710;2022-11-15T11:30:21;10.05;;;4.38;;
67156;SDS011;54086;50.126;8.710;2022-11-15T11:40:44;9.80;;;4.32;;
67156;SDS011;54086;50.126;8.710;2022-11-15T11:48:46;9.80;;;4.70;;
67156;SDS011;54086;50.126;8.710;2022-11-15T11:53:46;8.50;;;4.20;;
67156;SDS011;54086;50.126;8.710;2022-11-15T11:56:20;10.77;;;4.03;;
67156;SDS011;54086;50.126;8.710;2022-11-15T11:58:50;10.80;;;4.53;;
67156;SDS011;54086;50.126;8.710;2022-11-15T12:04:20;8.05;;;3.60;;
67156;SDS011;54086;50.126;8.710;2022-11-15T12:09:45;8.98;;;4.20;;
67156;SDS011;54086;50.126;8.710;2022-11-15T12:12:18;9.98;;;4.18;;
67156;SDS011;54086;50.126;8.710;2022-11-15T12:14:51;9.50;;;3.87;;
67156;SDS011;54086;50.126;8.710;2022-11-15T12:17:25;8.75;;;4.03;;
67156;SDS011;54086;50.126;8.710;2022-11-15T12:19:56;10.32;;;4.10;;
67156;SDS011;54086;50.126;8.710;2022-11-15T12:23:06;8.07;;;3.60;;
67156;SDS011;54086;50.126;8.710;2022-11-15T12:25:30;9.55;;;3.70;;
67156;SDS011;54086;50.126;8.710;2022-11-15T12:34:00;10.38;;;3.70;;
67156;SDS011;54086;50.126;8.710;2022-11-15T12:36:11;8.52;;;3.60;;
67156;SDS011;54086;50.126;8.710;2022-11-15T12:41:27;8.17;;;3.00;;
67156;SDS011;54086;50.126;8.710;2022-11-15T12:43:57;10.30;;;3.28;;
67156;SDS011;54086;50.126;8.710;2022-11-15T12:48:57;11.32;;;3.33;;
67156;SDS011;54086;50.126;8.710;2022-11-15T12:59:48;9.15;;;3.60;;
67156;SDS011;54086;50.126;8.710;2022-11-15T13:02:17;8.77;;;3.33;;
67156;SDS011;54086;50.126;8.710;2022-11-15T13:04:46;9.25;;;3.65;;
67156;SDS011;54086;50.126;8.710;2022-11-15T13:07:55;7.57;;;2.87;;
67156;SDS011;54086;50.126;8.710;2022-11-15T13:09:59;7.85;;;3.20;;
67156;SDS011;54086;50.126;8.710;2022-11-15T13:17:27;7.53;;;3.25;;
67156;SDS011;54086;50.126;8.710;2022-11-15T13:19:57;8.83;;;2.70;;
67156;SDS011;54086;50.126;8.710;2022-11-15T13:33:15;7.67;;;3.00;;
67156;SDS011;54086;50.126;8.710;2022-11-15T13:35:46;9.73;;;2.90;;
67156;SDS011;54086;50.126;8.710;2022-11-15T13:38:19;6.43;;;2.40;;
67156;SDS011;54086;50.126;8.710;2022-11-15T13:40:50;6.00;;;2.45;;
67156;SDS011;54086;50.126;8.710;2022-11-15T13:45:44;6.70;;;2.47;;
67156;SDS011;54086;50.126;8.710;2022-11-15T13:48:09;6.87;;;2.27;;
67156;SDS011;54086;50.126;8.710;2022-11-15T13:50:35;6.05;;;2.20;;
67156;SDS011;54086;50.126;8.710;2022-11-15T13:53:03;6.53;;;2.13;;
67156;SDS011;54086;50.126;8.710;2022-11-15T13:55:30;9.88;;;2.78;;
67156;SDS011;54086;50.126;8.710;2022-11-15T13:58:01;6.20;;;2.38;;
67156;SDS011;54086;50.126;8.710;2022-11-15T14:00:37;8.73;;;2.25;;
67156;SDS011;54086;50.126;8.710;2022-11-15T14:05:39;6.70;;;2.20;;
67156;SDS011;54086;50.126;8.710;2022-11-15T14:10:47;7.30;;;2.10;;
67156;SDS011;54086;50.126;8.710;2022-11-15T14:13:29;10.87;;;3.17;;
67156;SDS011;54086;50.126;8.710;2022-11-15T14:18:45;8.70;;;2.37;;
67156;SDS011;54086;50.126;8.710;2022-11-15T14:21:13;7.63;;;2.40;;
67156;SDS011;54086;50.126;8.710;2022-11-15T14:23:39;9.00;;;2.20;;
67156;SDS011;54086;50.126;8.710;2022-11-15T14:26:04;10.10;;;2.40;;
67156;SDS011;54086;50.126;8.710;2022-11-15T14:28:31;8.63;;;2.53;;
67156;SDS011;54086;50.126;8.710;2022-11-15T14:30:59;9.97;;;2.43;;
67156;SDS011;54086;50.126;8.710;2022-11-15T14:35:58;9.05;;;2.40;;
67156;SDS011;54086;50.126;8.710;2022-11-15T14:38:40;6.18;;;2.20;;
67156;SDS011;54086;50.126;8.710;2022-11-15T14:41:17;5.40;;;2.03;;
67156;SDS011;54086;50.126;8.710;2022-11-15T14:43:45;9.15;;;2.17;;
67156;SDS011;54086;50.126;8.710;2022-11-15T14:46:10;6.00;;;2.15;;
67156;SDS011;54086;50.126;8.710;2022-11-15T14:48:35;7.00;;;2.40;;
67156;SDS011;54086;50.126;8.710;2022-11-15T14:51:01;9.20;;;2.60;;
67156;SDS011;54086;50.126;8.710;2022-11-15T14:53:26;6.33;;;2.50;;
67156;SDS011;54086;50.126;8.710;2022-11-15T14:55:52;6.80;;;2.53;;
67156;SDS011;54086;50.126;8.710;2022-11-15T14:58:17;8.27;;;3.17;;
67156;SDS011;54086;50.126;8.710;2022-11-15T15:00:43;9.17;;;3.00;;
67156;SDS011;54086;50.126;8.710;2022-11-15T15:03:08;10.60;;;4.47;;
67156;SDS011;54086;50.126;8.710;2022-11-15T15:05:36;12.45;;;3.40;;
67156;SDS011;54086;50.126;8.710;2022-11-15T15:08:04;13.03;;;3.70;;
67156;SDS011;54086;50.126;8.710;2022-11-15T15:10:35;9.88;;;3.53;;
67156;SDS011;54086;50.126;8.710;2022-11-15T15:13:02;10.02;;;3.90;;
67156;SDS011;54086;50.126;8.710;2022-11-15T15:15:35;13.32;;;4.22;;
67156;SDS011;54086;50.126;8.710;2022-11-15T15:18:02;10.80;;;3.50;;
67156;SDS011;54086;50.126;8.710;2022-11-15T15:20:29;16.00;;;4.10;;
67156;SDS011;54086;50.126;8.710;2022-11-15T15:22:55;14.90;;;3.90;;
67156;SDS011;54086;50.126;8.710;2022-11-15T15:25:22;13.57;;;3.97;;
67156;SDS011;54086;50.126;8.710;2022-11-15T15:27:51;10.85;;;4.53;;
67156;SDS011;54086;50.126;8.710;2022-11-15T15:30:17;9.75;;;4.30;;
67156;SDS011;54086;50.126;8.710;2022-11-15T15:32:43;12.83;;;4.90;;
67156;SDS011;54086;50.126;8.710;2022-11-15T15:35:11;11.77;;;6.27;;
67156;SDS011;54086;50.126;8.710;2022-11-15T15:37:40;10.52;;;4.65;;
67156;SDS011;54086;50.126;8.710;2022-11-15T15:40:14;11.27;;;4.90;;
67156;SDS011;54086;50.126;8.710;2022-11-15T15:42:42;12.25;;;4.55;;
67156;SDS011;54086;50.126;8.710;2022-11-15T15:45:08;12.17;;;4.80;;
67156;SDS011;54086;50.126;8.710;2022-11-15T15:47:34;11.52;;;5.40;;
67156;SDS011;54086;50.126;8.710;2022-11-15T15:49:59;11.80;;;4.97;;
67156;SDS011;54086;50.126;8.710;2022-11-15T15:52:24;12.47;;;5.27;;
67156;SDS011;54086;50.126;8.710;2022-11-15T15:54:50;16.08;;;6.53;;
67156;SDS011;54086;50.126;8.710;2022-11-15T15:57:15;10.70;;;4.70;;
67156;SDS011;54086;50.126;8.710;2022-11-15T15:59:41;8.87;;;4.20;;
67156;SDS011;54086;50.126;8.710;2022-11-15T16:02:08;9.93;;;4.72;;
67156;SDS011;54086;50.126;8.710;2022-11-15T16:04:37;11.75;;;5.50;;
67156;SDS011;54086;50.126;8.710;2022-11-15T16:07:03;13.27;;;5.30;;
67156;SDS011;54086;50.126;8.710;2022-11-15T16:09:29;11.50;;;4.88;;
67156;SDS011;54086;50.126;8.710;2022-11-15T16:12:13;9.90;;;4.80;;
67156;SDS011;54086;50.126;8.710;2022-11-15T16:14:41;11.10;;;4.83;;
67156;SDS011;54086;50.126;8.710;2022-11-15T16:17:08;13.48;;;4.47;;
67156;SDS011;54086;50.126;8.710;2022-11-15T16:19:40;10.30;;;4.25;;
67156;SDS011;54086;50.126;8.710;2022-11-15T16:22:06;12.57;;;5.50;;
67156;SDS011;54086;50.126;8.710;2022-11-15T16:24:31;11.27;;;4.30;;
67156;SDS011;54086;50.126;8.710;2022-11-15T16:26:56;10.23;;;4.57;;
67156;SDS011;54086;50.126;8.710;2022-11-15T16:29:22;11.90;;;5.07;;
67156;SDS011;54086;50.126;8.710;2022-11-15T16:31:48;9.38;;;4.90;;
67156;SDS011;54086;50.126;8.710;2022-11-15T16:34:13;11.00;;;5.17;;
67156;SDS011;54086;50.126;8.710;2022-11-15T16:36:38;8.60;;;4.20;;
67156;SDS011;54086;50.126;8.710;2022-11-15T16:39:04;10.37;;;4.73;;
67156;SDS011;54086;50.126;8.710;2022-11-15T16:41:29;14.70;;;4.72;;
67156;SDS011;54086;50.126;8.710;2022-11-15T16:43:55;12.13;;;4.30;;
67156;SDS011;54086;50.126;8.710;2022-11-15T16:46:24;8.70;;;3.67;;
67156;SDS011;54086;50.126;8.710;2022-11-15T16:48:51;11.27;;;3.90;;
67156;SDS011;54086;50.126;8.710;2022-11-15T16:51:18;7.82;;;3.88;;
67156;SDS011;54086;50.126;8.710;2022-11-15T16:53:44;15.35;;;5.78;;
67156;SDS011;54086;50.126;8.710;2022-11-15T16:58:44;9.90;;;3.43;;
67156;SDS011;54086;50.126;8.710;2022-11-15T17:01:15;9.90;;;3.30;;
67156;SDS011;54086;50.126;8.710;2022-11-15T17:03:43;9.53;;;3.37;;
67156;SDS011;54086;50.126;8.710;2022-11-15T17:06:09;8.93;;;3.40;;
67156;SDS011;54086;50.126;8.710;2022-11-15T17:08:36;10.03;;;3.30;;
67156;SDS011;54086;50.126;8.710;2022-11-15T17:11:04;10.73;;;4.37;;
67156;SDS011;54086;50.126;8.710;2022-11-15T17:13:30;9.00;;;4.20;;
67156;SDS011;54086;50.126;8.710;2022-11-15T17:16:07;9.73;;;4.50;;
67156;SDS011;54086;50.126;8.710;2022-11-15T17:18:38;10.13;;;5.13;;
67156;SDS011;54086;50.126;8.710;2022-11-15T17:21:05;7.32;;;3.60;;
67156;SDS011;54086;50.126;8.710;2022-11-15T17:23:39;8.48;;;3.53;;